createdAt,value
2022-09-09T03:01:10.056Z,15.00
2022-09-09T03:03:37.424Z,15.00
2022-09-09T03:06:06.713Z,15.00
2022-09-09T03:08:33.895Z,15.00
2022-09-09T03:11:03.868Z,15.00
2022-09-09T03:13:31.084Z,15.00
2022-09-09T03:15:58.234Z,15.00
2022-09-09T03:18:26.133Z,15.00
2022-09-09T03:20:54.987Z,15.10
2022-09-09T03:23:22.722Z,15.00
2022-09-09T03:25:53.130Z,15.00
2022-09-09T03:28:21.561Z,15.00
2022-09-09T03:30:49.390Z,15.00
2022-09-09T03:33:17.235Z,14.90
2022-09-09T03:35:49.675Z,14.80
2022-09-09T03:38:16.914Z,14.80
2022-09-09T03:40:56.511Z,14.80
2022-09-09T03:43:24.601Z,14.70
2022-09-09T03:45:52.384Z,14.70
2022-09-09T03:48:20.327Z,14.70
2022-09-09T03:50:47.815Z,14.70
2022-09-09T03:53:16.899Z,14.70
2022-09-09T03:55:53.647Z,14.60
2022-09-09T03:58:21.132Z,14.50
2022-09-09T04:00:55.763Z,14.40
2022-09-09T04:03:28.015Z,14.40
2022-09-09T04:05:57.120Z,14.40
2022-09-09T04:08:26.353Z,14.40
2022-09-09T04:10:54.525Z,14.40
2022-09-09T04:13:21.743Z,14.40
2022-09-09T04:15:56.713Z,14.40
2022-09-09T04:18:24.743Z,14.40
2022-09-09T04:20:53.384Z,14.30
2022-09-09T04:23:21.563Z,14.30
2022-09-09T04:25:53.650Z,14.30
2022-09-09T04:28:23.738Z,14.20
2022-09-09T04:30:51.397Z,14.30
2022-09-09T04:33:18.831Z,14.30
2022-09-09T04:35:51.057Z,14.40
2022-09-09T04:38:19.148Z,14.40
2022-09-09T04:40:50.617Z,14.50
2022-09-09T04:43:18.937Z,14.50
2022-09-09T04:45:49.576Z,14.50
2022-09-09T04:48:17.076Z,14.60
2022-09-09T04:50:44.371Z,14.60
2022-09-09T04:53:11.577Z,14.60
2022-09-09T04:55:38.799Z,14.60
2022-09-09T04:58:07.949Z,14.70
2022-09-09T05:00:36.844Z,14.70
2022-09-09T05:03:05.966Z,14.70
2022-09-09T05:05:37.137Z,14.70
2022-09-09T05:08:09.859Z,14.80
2022-09-09T05:10:39.303Z,14.80
2022-09-09T05:13:07.556Z,14.90
2022-09-09T05:15:34.713Z,14.90
2022-09-09T05:18:03.395Z,14.80
2022-09-09T05:20:30.765Z,14.80
2022-09-09T05:22:57.965Z,14.80
2022-09-09T05:25:27.062Z,14.90
2022-09-09T05:27:54.789Z,14.90
2022-09-09T05:30:24.172Z,14.90
2022-09-09T05:32:51.294Z,15.00
2022-09-09T05:35:20.112Z,15.00
2022-09-09T05:37:47.316Z,15.00
2022-09-09T05:40:14.741Z,15.00
2022-09-09T05:42:42.302Z,15.00
2022-09-09T05:45:10.288Z,15.10
2022-09-09T05:47:38.340Z,15.20
2022-09-09T05:50:05.983Z,15.20
2022-09-09T05:52:33.665Z,15.30
2022-09-09T05:55:00.853Z,15.30
2022-09-09T05:57:28.035Z,15.40
2022-09-09T05:59:55.145Z,15.40
2022-09-09T06:02:22.385Z,15.40
2022-09-09T06:04:49.641Z,15.50
2022-09-09T06:07:17.664Z,15.60
2022-09-09T06:09:44.826Z,15.60
2022-09-09T06:12:11.953Z,15.70
2022-09-09T06:14:42.076Z,15.70
2022-09-09T06:17:11.557Z,15.80
2022-09-09T06:19:38.796Z,15.80
2022-09-09T06:22:06.358Z,15.80
2022-09-09T06:24:33.951Z,15.90
2022-09-09T06:27:01.269Z,16.10
2022-09-09T06:29:28.374Z,16.20
2022-09-09T06:31:55.680Z,16.30
2022-09-09T06:34:23.004Z,16.40
2022-09-09T06:36:50.308Z,16.50
2022-09-09T06:39:17.519Z,16.60
2022-09-09T06:41:44.645Z,16.70
2022-09-09T06:44:12.875Z,16.70
2022-09-09T06:46:40.776Z,16.70
2022-09-09T06:49:10.071Z,16.70
2022-09-09T06:51:43.931Z,16.80
2022-09-09T06:54:13.111Z,16.70
2022-09-09T06:56:42.883Z,16.90
2022-09-09T06:59:10.995Z,17.10
2022-09-09T07:01:41.994Z,17.20
2022-09-09T07:04:10.485Z,17.20
2022-09-09T07:06:41.220Z,17.30
2022-09-09T07:09:12.673Z,17.30
2022-09-09T07:11:42.837Z,17.30
2022-09-09T07:14:11.950Z,17.40
2022-09-09T07:16:39.460Z,17.40
2022-09-09T07:19:06.712Z,17.50
2022-09-09T07:21:34.822Z,17.60
2022-09-09T07:24:02.666Z,17.60
2022-09-09T07:26:32.238Z,17.60
2022-09-09T07:28:59.487Z,17.80
2022-09-09T07:31:30.941Z,17.80
2022-09-09T07:33:58.851Z,17.90
2022-09-09T07:36:33.312Z,18.00
2022-09-09T07:39:04.358Z,17.90
2022-09-09T07:41:38.692Z,17.90
2022-09-09T07:44:08.223Z,18.00
2022-09-09T07:46:36.390Z,18.00
2022-09-09T07:49:04.641Z,18.20
2022-09-09T07:51:34.538Z,18.40
2022-09-09T07:54:07.460Z,18.40
2022-09-09T07:56:34.869Z,18.50
2022-09-09T07:59:02.550Z,18.60
2022-09-09T08:01:32.516Z,18.60
2022-09-09T08:04:05.203Z,18.80
2022-09-09T08:06:36.029Z,18.90
2022-09-09T08:09:04.305Z,18.90
2022-09-09T08:11:38.596Z,19.00
2022-09-09T08:14:08.733Z,18.80
2022-09-09T08:16:39.037Z,18.70
2022-09-09T08:19:09.125Z,18.80
2022-09-09T08:21:39.226Z,18.80
2022-09-09T08:24:07.087Z,19.00
2022-09-09T08:26:36.778Z,19.00
2022-09-09T08:29:06.221Z,18.90
2022-09-09T08:31:35.940Z,18.80
2022-09-09T08:34:04.531Z,18.80
2022-09-09T08:36:34.962Z,18.80
2022-09-09T08:39:02.605Z,18.80
2022-09-09T08:41:54.388Z,18.90
2022-09-09T08:44:40.079Z,19.00
2022-09-09T08:47:55.057Z,19.00
2022-09-09T08:50:39.404Z,19.10
2022-09-09T08:53:09.444Z,19.00
2022-09-09T08:55:39.946Z,19.00
2022-09-09T08:58:22.532Z,18.90
2022-09-09T09:01:11.086Z,18.80
2022-09-09T09:03:56.035Z,18.70
2022-09-09T09:06:32.116Z,18.60
2022-09-09T09:09:14.645Z,18.40
2022-09-09T09:11:48.419Z,18.40
2022-09-09T09:14:23.548Z,18.30
2022-09-09T09:17:10.597Z,18.40
2022-09-09T09:19:41.883Z,18.40
2022-09-09T09:22:17.002Z,18.40
2022-09-09T09:24:56.179Z,18.40
2022-09-09T09:27:36.570Z,18.50
2022-09-09T09:30:25.670Z,18.40
2022-09-09T09:32:59.456Z,18.50
2022-09-09T09:35:26.598Z,18.60
2022-09-09T09:40:55.320Z,18.60
2022-09-09T09:43:29.401Z,18.50
2022-09-09T09:46:16.685Z,18.70
2022-09-09T09:48:46.071Z,18.90
2022-09-09T09:51:17.345Z,19.00
2022-09-09T09:53:44.721Z,19.10
2022-09-09T09:56:14.408Z,18.90
2022-09-09T09:58:47.437Z,19.00
2022-09-09T10:01:30.652Z,19.00
2022-09-09T10:04:24.147Z,18.80
2022-09-09T10:06:51.930Z,18.60
2022-09-09T10:09:26.936Z,18.50
2022-09-09T10:12:15.168Z,18.40
2022-09-09T10:14:48.035Z,18.30
2022-09-09T10:17:31.309Z,18.00
2022-09-09T10:20:33.207Z,17.90
2022-09-09T10:23:50.779Z,17.90
2022-09-09T10:26:38.261Z,17.90
2022-09-09T10:29:44.876Z,18.10
2022-09-09T10:32:11.965Z,18.30
2022-09-09T10:34:39.086Z,18.40
2022-09-09T10:37:24.432Z,18.50
2022-09-09T10:40:06.132Z,18.30
2022-09-09T10:42:33.776Z,18.40
2022-09-09T10:45:14.806Z,18.40
2022-09-09T10:48:11.092Z,18.50
2022-09-09T10:51:03.859Z,18.50
2022-09-09T10:53:44.350Z,18.50
2022-09-09T10:56:16.120Z,18.80
2022-09-09T10:58:50.601Z,18.80
2022-09-09T11:01:30.264Z,19.00
2022-09-09T11:04:12.353Z,19.20
2022-09-09T11:06:45.268Z,19.40
2022-09-09T11:09:18.172Z,19.60
2022-09-09T11:11:56.133Z,19.70
2022-09-09T11:14:46.842Z,19.70
2022-09-09T11:17:21.416Z,19.50
2022-09-09T11:19:48.745Z,19.40
2022-09-09T11:22:37.568Z,19.40
2022-09-09T11:25:17.089Z,19.30
2022-09-09T11:27:55.929Z,19.30
2022-09-09T11:30:54.968Z,19.30
2022-09-09T11:33:39.815Z,19.20
2022-09-09T11:36:26.112Z,19.30
2022-09-09T11:39:00.449Z,19.40
2022-09-09T11:41:36.203Z,19.40
2022-09-09T11:44:17.519Z,19.40
2022-09-09T11:46:47.322Z,19.40
2022-09-09T11:49:42.208Z,19.50
2022-09-09T11:52:36.492Z,19.60
2022-09-09T11:55:27.956Z,19.70
2022-09-09T11:58:06.094Z,19.70
2022-09-09T12:00:36.085Z,19.80
2022-09-09T12:03:04.017Z,20.10
2022-09-09T12:05:41.776Z,20.50
2022-09-09T12:08:12.737Z,20.60
2022-09-09T12:10:41.152Z,20.60
2022-09-09T12:13:24.392Z,20.70
2022-09-09T12:15:56.828Z,21.00
2022-09-09T12:18:35.622Z,21.20
2022-09-09T12:21:17.773Z,21.20
2022-09-09T12:24:02.895Z,21.10
2022-09-09T12:26:33.767Z,21.20
2022-09-09T12:29:05.488Z,21.00
2022-09-09T12:31:52.397Z,20.90
2022-09-09T12:34:32.710Z,21.00
2022-09-09T12:37:15.689Z,21.10
2022-09-09T12:40:00.181Z,21.20
2022-09-09T12:42:28.355Z,21.30
2022-09-09T12:45:04.369Z,21.60
2022-09-09T12:47:46.854Z,21.80
2022-09-09T12:50:23.673Z,21.60
2022-09-09T12:52:54.328Z,21.50
2022-09-09T12:55:26.086Z,21.40
2022-09-09T12:57:53.469Z,21.50
2022-09-09T13:00:23.615Z,21.50
2022-09-09T13:03:17.065Z,21.50
2022-09-09T13:05:44.261Z,21.70
2022-09-09T13:08:13.300Z,21.80
2022-09-09T13:10:53.645Z,21.60
2022-09-09T13:13:30.938Z,21.50
2022-09-09T13:16:00.063Z,21.30
2022-09-09T13:18:32.838Z,21.20
2022-09-09T13:21:00.374Z,21.20
2022-09-09T13:23:38.547Z,21.10
2022-09-09T13:26:27.196Z,21.10
2022-09-09T13:28:55.690Z,21.10
2022-09-09T13:31:30.938Z,21.10
2022-09-09T13:33:58.574Z,21.30
2022-09-09T13:36:35.315Z,21.20
2022-09-09T13:39:04.578Z,21.30
2022-09-09T13:41:35.686Z,21.40
2022-09-09T13:44:04.675Z,21.50
2022-09-09T13:46:43.040Z,21.50
2022-09-09T13:49:10.126Z,21.10
2022-09-09T13:51:38.713Z,20.80
2022-09-09T13:54:10.151Z,20.80
2022-09-09T13:56:39.656Z,20.80
2022-09-09T13:59:12.900Z,20.90
2022-09-09T14:01:40.183Z,21.10
2022-09-09T14:04:07.607Z,21.20
2022-09-09T14:06:38.193Z,21.10
2022-09-09T14:09:07.023Z,20.90
2022-09-09T14:11:34.208Z,20.80
2022-09-09T14:14:01.930Z,20.70
2022-09-09T14:16:29.414Z,20.40
2022-09-09T14:19:00.106Z,20.40
2022-09-09T14:21:28.533Z,20.50
2022-09-09T14:23:55.658Z,20.50
2022-09-09T14:26:23.302Z,20.60
2022-09-09T14:28:55.292Z,20.80
2022-09-09T14:31:24.075Z,21.00
2022-09-09T14:33:51.927Z,21.20
2022-09-09T14:36:19.715Z,21.40
2022-09-09T14:38:47.214Z,21.50
2022-09-09T14:41:17.857Z,21.50
2022-09-09T14:43:45.935Z,21.40
2022-09-09T14:46:16.884Z,21.40
2022-09-09T14:48:45.184Z,21.50
2022-09-09T14:51:16.195Z,21.60
2022-09-09T14:53:45.082Z,21.50
2022-09-09T14:56:15.893Z,21.40
2022-09-09T14:58:43.223Z,21.20
2022-09-09T15:01:15.153Z,21.30
2022-09-09T15:03:44.440Z,21.40
2022-09-09T15:06:14.461Z,21.10
2022-09-09T15:08:43.789Z,20.90
2022-09-09T15:11:13.096Z,20.80
2022-09-09T15:13:42.054Z,20.70
2022-09-09T15:16:17.405Z,20.80
2022-09-09T15:18:46.072Z,21.00
2022-09-09T15:21:15.234Z,21.20
2022-09-09T15:23:43.235Z,21.20
2022-09-09T15:26:11.176Z,21.20
2022-09-09T15:28:39.568Z,21.30
2022-09-09T15:31:15.335Z,21.40
2022-09-09T15:33:42.658Z,21.50
2022-09-09T15:36:22.931Z,21.60
2022-09-09T15:38:51.236Z,21.30
2022-09-09T15:41:20.870Z,21.30
2022-09-09T15:43:53.031Z,21.20
2022-09-09T15:46:28.282Z,21.00
2022-09-09T15:49:04.724Z,20.90
2022-09-09T15:51:47.674Z,21.00
2022-09-09T15:54:21.777Z,21.00
2022-09-09T15:56:56.855Z,20.90
2022-09-09T15:59:25.436Z,20.80
2022-09-09T16:01:52.994Z,20.60
2022-09-09T16:04:24.458Z,20.50
2022-09-09T16:06:56.944Z,20.50
2022-09-09T16:09:24.148Z,20.50
2022-09-09T16:11:51.935Z,20.30
2022-09-09T16:14:19.056Z,20.00
2022-09-09T16:16:46.229Z,20.00
2022-09-09T16:19:14.153Z,20.00
2022-09-09T16:21:44.118Z,19.90
2022-09-09T16:24:13.916Z,20.00
2022-09-09T16:26:45.630Z,20.00
2022-09-09T16:29:15.165Z,19.90
2022-09-09T16:31:42.524Z,19.80
2022-09-09T16:34:10.400Z,19.80
2022-09-09T16:36:40.086Z,19.60
2022-09-09T16:39:12.840Z,19.50
2022-09-09T16:41:41.389Z,19.50
2022-09-09T16:44:10.613Z,19.50
2022-09-09T16:46:40.787Z,19.50
2022-09-09T16:49:11.020Z,19.40
2022-09-09T16:51:40.995Z,19.30
2022-09-09T16:54:09.877Z,19.30
2022-09-09T16:56:39.552Z,19.20
2022-09-09T16:59:12.260Z,19.10
2022-09-09T17:01:44.255Z,19.00
2022-09-09T17:04:27.416Z,18.90
2022-09-09T17:06:55.957Z,18.90
2022-09-09T17:09:24.296Z,18.70
2022-09-09T17:11:52.935Z,18.50
2022-09-09T17:14:21.737Z,18.40
2022-09-09T17:16:49.154Z,18.40
2022-09-09T17:19:16.496Z,18.40
2022-09-09T17:22:05.788Z,18.30
2022-09-09T17:24:30.920Z,18.20
2022-09-09T17:26:58.699Z,18.10
2022-09-09T17:29:26.319Z,18.00
2022-09-09T17:31:54.020Z,17.90
2022-09-09T17:34:21.844Z,17.90
2022-09-09T17:36:49.148Z,17.80
2022-09-09T17:39:16.376Z,17.70
2022-09-09T17:41:43.503Z,17.60
2022-09-09T17:44:11.100Z,17.50
2022-09-09T17:46:43.654Z,17.50
2022-09-09T17:49:13.964Z,17.40
2022-09-09T17:51:42.569Z,17.40
2022-09-09T17:54:16.239Z,17.30
2022-09-09T17:56:44.984Z,17.30
2022-09-09T17:59:14.534Z,17.30
2022-09-09T18:01:47.464Z,17.20
2022-09-09T18:04:16.551Z,17.10
2022-09-09T18:06:46.520Z,17.00
2022-09-09T18:09:23.358Z,17.00
2022-09-09T18:11:54.314Z,16.90
2022-09-09T18:14:31.915Z,16.80
2022-09-09T18:17:00.563Z,16.80
2022-09-09T18:19:30.657Z,16.70
2022-09-09T18:22:01.782Z,16.70
2022-09-09T18:24:30.451Z,16.60
2022-09-09T18:26:57.586Z,16.60
2022-09-09T18:29:25.527Z,16.50
2022-09-09T18:31:54.923Z,16.50
2022-09-09T18:34:25.656Z,16.50
2022-09-09T18:36:55.123Z,16.40
2022-09-09T18:39:25.468Z,16.20
2022-09-09T18:41:55.534Z,16.10
2022-09-09T18:44:26.036Z,15.90
2022-09-09T18:46:53.831Z,15.80
2022-09-09T18:49:24.805Z,15.80
2022-09-09T18:51:52.459Z,15.70
2022-09-09T18:54:26.430Z,15.70
2022-09-09T18:56:53.544Z,15.60
2022-09-09T18:59:23.726Z,15.70
2022-09-09T19:01:54.000Z,15.70
2022-09-09T19:04:22.701Z,15.70
2022-09-09T19:06:51.713Z,15.70
2022-09-09T19:09:19.110Z,15.70
2022-09-09T19:11:47.191Z,15.70
2022-09-09T19:14:16.584Z,15.60
2022-09-09T19:16:45.344Z,15.60
2022-09-09T19:19:32.596Z,15.60
2022-09-09T19:22:01.718Z,15.60
2022-09-09T19:24:31.697Z,15.60
2022-09-09T19:27:01.968Z,15.60
2022-09-09T19:29:31.944Z,15.50
2022-09-09T19:34:48.884Z,15.30
2022-09-09T19:37:18.527Z,15.20
2022-09-09T19:39:47.111Z,15.10
2022-09-09T19:42:14.496Z,15.10
2022-09-09T19:44:41.696Z,15.00
2022-09-09T19:47:08.904Z,15.10
2022-09-09T19:49:37.228Z,15.10
2022-09-09T19:52:04.830Z,15.10
2022-09-09T19:54:32.476Z,15.10
2022-09-09T19:57:01.077Z,15.10
2022-09-09T19:59:29.229Z,15.20
2022-09-09T20:01:57.068Z,15.30
2022-09-09T20:04:24.845Z,15.40
2022-09-09T20:06:53.099Z,15.10
2022-09-09T20:09:21.441Z,14.70
2022-09-09T20:11:49.680Z,14.20
2022-09-09T20:14:18.174Z,13.80
2022-09-09T20:16:46.387Z,13.60
2022-09-09T20:19:18.229Z,13.60
2022-09-09T20:21:49.245Z,13.50
2022-09-09T20:24:19.477Z,13.50
2022-09-09T20:26:47.986Z,13.50
2022-09-09T20:29:18.051Z,13.60
2022-09-09T20:31:45.996Z,13.50
2022-09-09T20:34:16.136Z,13.60
2022-09-09T20:36:43.666Z,13.70
2022-09-09T20:39:14.855Z,13.70
2022-09-09T20:41:44.368Z,13.70
2022-09-09T20:44:24.054Z,13.80
2022-09-09T20:46:55.386Z,13.80
2022-09-09T20:49:24.345Z,13.80
2022-09-09T20:51:52.551Z,13.80
2022-09-09T20:54:25.173Z,13.70
2022-09-09T20:56:54.324Z,13.70
2022-09-09T20:59:31.618Z,13.70
